Air Navigation Services of Czech Republic
Airport: LKNA Updated:  19.01.2018 14:08:06  UTC
 METAR LKNA 19.01. 14:00 ...
METAR LKNA 191400Z 26008KT 9999 FEW011 SCT025 BKN030 01/M00 Q1008 NOSIG=
 TAF LKNA 19.01. 11:00 ...
TAF LKNA 191100Z 1912/2012 28010KT 9999 BKN030      TEMPO 1912/1918 5000 SN BKN015 OVC025      TEMPO 1912/1914 1500 SN BKN010 OVC020 2000/2002 VRB02KT=